KVRB/VRB METAR and TAF weather

Enter ICAO airport designator
Station Type Date Time Source
KVRB METAR 2022/06/27 06:53 UTC NOAA

KVRB 270653Z AUTO 00000KT 9SM CLR 23/23 A3002 RMK AO2 SLP165 T02330233


Station Type Date Time Source
KVRB Decoded METAR 2022/06/27 06:53 UTC NOAA

VERO BEACH MUNICIPAL AIRPORT , FL, United States (KVRB) 27-39N 080-25W 10M
Jun 27, 2022 - 02:53 AM EDT / 2022.06.27 0653 UTC
Wind: Calm:0
Visibility: 9 mile(s):0
Sky conditions: clear
Temperature: 73.9 F (23.3 C)
Dew Point: 73.9 F (23.3 C)
Relative Humidity: 100%
Pressure (altimeter): 30.02 in. Hg (1016 hPa)
ob: KVRB 270653Z AUTO 00000KT 9SM CLR 23/23 A3002 RMK AO2 SLP165 T02330233
cycle: 7

Station Type Date Time Source
KVRB TAF 2022/06/27 06:39 UTC NOAA

TAF KVRB 270537Z 2706/2806 32004KT P6SM VCSH SCT022
FM271400 11007KT P6SM VCSH SCT022 SCT050 SCT080
FM271800 11011KT P6SM VCTS SCT035CB BKN080
FM272100 11009KT P6SM SCT030
FM280100 12005KT P6SM FEW025

Example: see airport list